Time;durP1;ratioP1;P1;durP2;ratioP2;P2;SDS_P1;SDS_P2;PMS_P1;PMS_P2;Temp;Humidity;BMP_temperature;BMP_pressure;BME280_temperature;BME280_humidity;BME280_pressure;Samples;Min_cycle;Max_cycle;Signal;HPM_P1;HPM_P2
2022/05/08 00:01:06;;;;;;;27.65;10.43;;;;;;;;;;6191148;23;20293;-80
2022/05/08 00:03:32;;;;;;;5.68;3.38;;;;;;;;;;6189331;23;20047;-87
2022/05/08 00:05:59;;;;;;;1.05;1.05;;;;;;;;;;6184535;23;20052;-82
2022/05/08 00:08:24;;;;;;;2.28;1.88;;;;;;;;;;6186358;23;20035;-87
2022/05/08 00:10:49;;;;;;;10.00;5.57;;;;;;;;;;6185515;23;20019;-85
2022/05/08 00:13:21;;;;;;;6.35;3.67;;;;;;;;;;6187334;23;20321;-82
2022/05/08 00:15:48;;;;;;;1.23;0.75;;;;;;;;;;6189971;23;20709;-78
2022/05/08 00:18:23;;;;;;;3.35;2.17;;;;;;;;;;6190404;23;20000;-86
2022/05/08 00:20:51;;;;;;;4.78;3.33;;;;;;;;;;6192866;23;20128;-83
2022/05/08 00:23:16;;;;;;;81.00;41.85;;;;;;;;;;6167266;23;20084;-87
2022/05/08 00:25:44;;;;;;;24.08;15.77;;;;;;;;;;6190833;23;20034;-86
2022/05/08 00:28:55;;;;;;;3.78;3.35;;;;;;;;;;6167228;23;20017;-84
2022/05/08 00:31:21;;;;;;;1.15;1.05;;;;;;;;;;6166072;23;20017;-88
2022/05/08 00:33:47;;;;;;;0.82;0.82;;;;;;;;;;6188397;23;20016;-81
2022/05/08 00:36:18;;;;;;;0.82;0.80;;;;;;;;;;6184798;23;20032;-82
2022/05/08 00:38:50;;;;;;;0.68;0.68;;;;;;;;;;6184220;23;20013;-92
2022/05/08 00:41:18;;;;;;;1.05;0.95;;;;;;;;;;6186872;23;19997;-86
2022/05/08 00:43:52;;;;;;;0.50;0.50;;;;;;;;;;6186885;23;20009;-84
2022/05/08 00:49:08;;;;;;;3.00;2.35;;;;;;;;;;6126214;23;20005;-86
2022/05/08 00:51:47;;;;;;;2.08;1.95;;;;;;;;;;6126033;23;20117;-86
2022/05/08 00:54:38;;;;;;;1.58;1.10;;;;;;;;;;6125430;23;20020;-87
2022/05/08 00:57:22;;;;;;;1.65;0.85;;;;;;;;;;6124058;23;20768;-88
2022/05/08 00:59:47;;;;;;;0.95;0.88;;;;;;;;;;6123175;23;20006;-87
2022/05/08 01:02:13;;;;;;;16.35;8.80;;;;;;;;;;6124899;23;20104;-81
2022/05/08 01:04:41;;;;;;;7.22;4.65;;;;;;;;;;6125800;23;20097;-86
2022/05/08 01:07:08;;;;;;;2.85;2.65;;;;;;;;;;6123649;23;20020;-82
2022/05/08 01:09:34;;;;;;;13.38;5.70;;;;;;;;;;6123251;23;20095;-84
2022/05/08 01:11:59;;;;;;;4.90;2.97;;;;;;;;;;6124574;23;20086;-82
2022/05/08 01:14:29;;;;;;;5.53;2.70;;;;;;;;;;6123970;23;20073;-83
2022/05/08 01:16:57;;;;;;;4.20;3.42;;;;;;;;;;6123874;23;20020;-83
2022/05/08 01:19:22;;;;;;;3.22;2.67;;;;;;;;;;6124839;23;20005;-84
2022/05/08 01:21:48;;;;;;;1.75;1.65;;;;;;;;;;6184984;23;20004;-82
2022/05/08 01:26:57;;;;;;;9.68;6.00;;;;;;;;;;6183400;23;20115;-89
2022/05/08 01:29:22;;;;;;;47.47;32.15;;;;;;;;;;6182709;23;20005;-84
2022/05/08 01:31:58;;;;;;;14.80;9.05;;;;;;;;;;6183342;23;20009;-84
2022/05/08 01:34:23;;;;;;;44.58;19.98;;;;;;;;;;6183355;23;20084;-83
2022/05/08 01:36:58;;;;;;;4.43;3.90;;;;;;;;;;6183013;23;20029;-84
2022/05/08 01:39:25;;;;;;;2.10;1.95;;;;;;;;;;6182890;23;20016;-86
2022/05/08 01:42:37;;;;;;;12.75;9.07;;;;;;;;;;6183861;23;20025;-80
2022/05/08 01:45:13;;;;;;;7.10;3.90;;;;;;;;;;6184411;23;20013;-82
2022/05/08 01:50:23;;;;;;;9.30;5.38;;;;;;;;;;6184478;23;20043;-82
2022/05/08 01:52:49;;;;;;;2.40;1.75;;;;;;;;;;6185410;23;20004;-88
2022/05/08 01:55:15;;;;;;;2.50;2.30;;;;;;;;;;6185634;23;20005;-86
2022/05/08 01:57:42;;;;;;;4.80;3.40;;;;;;;;;;6182664;23;20297;-84
2022/05/08 02:00:08;;;;;;;2.97;2.67;;;;;;;;;;6183411;23;20503;-82
2022/05/08 02:02:33;;;;;;;5.38;2.28;;;;;;;;;;6183027;23;20088;-86
2022/05/08 02:04:59;;;;;;;3.40;3.05;;;;;;;;;;6158131;23;20087;-83
2022/05/08 02:07:25;;;;;;;66.97;41.15;;;;;;;;;;6184462;23;20307;-80
2022/05/08 02:09:50;;;;;;;13.45;12.13;;;;;;;;;;6184628;23;20084;-85
2022/05/08 02:12:15;;;;;;;1.92;1.00;;;;;;;;;;6184813;23;20001;-81
2022/05/08 02:14:44;;;;;;;1.58;1.35;;;;;;;;;;6184674;23;20005;-82
2022/05/08 02:17:10;;;;;;;1.52;1.42;;;;;;;;;;6186618;23;20080;-83
2022/05/08 02:19:35;;;;;;;2.08;1.90;;;;;;;;;;6185819;23;20086;-82
2022/05/08 02:22:01;;;;;;;0.45;0.45;;;;;;;;;;6186492;23;19997;-80
2022/05/08 02:24:28;;;;;;;2.75;1.95;;;;;;;;;;6184823;23;20007;-81
2022/05/08 02:26:54;;;;;;;0.93;0.90;;;;;;;;;;6186754;23;20005;-79
2022/05/08 02:29:19;;;;;;;1.27;1.20;;;;;;;;;;6184634;23;20081;-83
2022/05/08 02:31:44;;;;;;;1.77;1.63;;;;;;;;;;6184874;23;20080;-80
2022/05/08 02:34:10;;;;;;;2.67;2.17;;;;;;;;;;6183959;23;20012;-81
2022/05/08 02:36:35;;;;;;;4.82;2.15;;;;;;;;;;6184514;23;20001;-79
2022/05/08 02:39:01;;;;;;;20.55;11.48;;;;;;;;;;6186368;23;20400;-81
2022/05/08 02:41:29;;;;;;;9.10;7.07;;;;;;;;;;6185303;23;20005;-78
2022/05/08 02:43:56;;;;;;;6.93;3.80;;;;;;;;;;6185276;23;20009;-77
2022/05/08 02:46:22;;;;;;;3.38;3.08;;;;;;;;;;6186360;23;20051;-78
2022/05/08 02:48:52;;;;;;;2.28;1.77;;;;;;;;;;6185789;23;20005;-84
2022/05/08 02:51:17;;;;;;;3.05;1.23;;;;;;;;;;6184869;23;20013;-85
2022/05/08 02:53:42;;;;;;;1.13;1.02;;;;;;;;;;6185488;23;20068;-77
2022/05/08 02:58:52;;;;;;;2.83;1.95;;;;;;;;;;6185912;23;20492;-75
2022/05/08 03:01:26;;;;;;;1.92;1.67;;;;;;;;;;6186454;23;20044;-79
2022/05/08 03:06:56;;;;;;;4.35;1.83;;;;;;;;;;6169442;23;20015;-78
2022/05/08 03:09:24;;;;;;;2.42;1.80;;;;;;;;;;6187077;23;20001;-80
2022/05/08 03:11:49;;;;;;;1.88;1.20;;;;;;;;;;6185325;23;20001;-74
2022/05/08 03:14:15;;;;;;;2.78;2.15;;;;;;;;;;6186659;23;20005;-73
2022/05/08 03:16:41;;;;;;;2.20;1.55;;;;;;;;;;6186945;23;20001;-73
2022/05/08 03:19:06;;;;;;;2.33;2.13;;;;;;;;;;6186734;23;20026;-75
2022/05/08 03:21:33;;;;;;;1.13;0.90;;;;;;;;;;6187008;23;20011;-73
2022/05/08 03:23:59;;;;;;;3.55;2.55;;;;;;;;;;6186626;23;20067;-73
2022/05/08 03:26:28;;;;;;;5.70;2.15;;;;;;;;;;6186905;23;20009;-74
2022/05/08 03:28:53;;;;;;;2.38;1.15;;;;;;;;;;6187214;23;20001;-74
2022/05/08 03:31:19;;;;;;;1.83;1.73;;;;;;;;;;6186567;23;20074;-74
2022/05/08 03:33:44;;;;;;;1.33;1.23;;;;;;;;;;6185443;23;20016;-74
2022/05/08 03:36:10;;;;;;;1.55;1.45;;;;;;;;;;6186599;23;20047;-74
2022/05/08 03:38:40;;;;;;;1.92;1.27;;;;;;;;;;6186584;23;20012;-73
2022/05/08 03:41:07;;;;;;;1.23;1.13;;;;;;;;;;6185067;23;20001;-73
2022/05/08 03:43:34;;;;;;;1.67;1.55;;;;;;;;;;6186650;23;20051;-74
2022/05/08 03:45:59;;;;;;;1.30;1.20;;;;;;;;;;6186578;23;20075;-74
2022/05/08 03:48:28;;;;;;;4.43;3.05;;;;;;;;;;6186229;23;20657;-74
2022/05/08 03:50:55;;;;;;;1.70;1.60;;;;;;;;;;6186435;23;20345;-74
2022/05/08 03:53:20;;;;;;;9.02;1.17;;;;;;;;;;6186233;23;20012;-73
2022/05/08 03:55:46;;;;;;;1.98;1.27;;;;;;;;;;6186741;23;20005;-74
2022/05/08 03:58:11;;;;;;;0.98;0.77;;;;;;;;;;6186451;23;20012;-74
2022/05/08 04:00:39;;;;;;;3.05;0.88;;;;;;;;;;6186809;23;19997;-74
2022/05/08 04:03:04;;;;;;;2.35;2.15;;;;;;;;;;6186105;23;20404;-74
2022/05/08 04:05:30;;;;;;;1.02;0.90;;;;;;;;;;6186402;23;20004;-74
2022/05/08 04:07:55;;;;;;;1.02;0.93;;;;;;;;;;6186650;23;20005;-74
2022/05/08 04:10:20;;;;;;;1.20;1.10;;;;;;;;;;6185959;23;20037;-74
2022/05/08 04:12:47;;;;;;;1.98;1.00;;;;;;;;;;6186018;23;20045;-73
2022/05/08 04:17:56;;;;;;;1.63;1.52;;;;;;;;;;6185419;23;20011;-74
2022/05/08 04:20:22;;;;;;;0.28;0.28;;;;;;;;;;6184665;23;20293;-74
2022/05/08 04:25:31;;;;;;;4.22;1.13;;;;;;;;;;6186459;23;20015;-75
2022/05/08 04:27:59;;;;;;;1.00;0.73;;;;;;;;;;6160499;23;20005;-74
2022/05/08 04:30:24;;;;;;;5.18;1.65;;;;;;;;;;6186371;23;20364;-73
2022/05/08 04:32:49;;;;;;;5.47;1.55;;;;;;;;;;6186023;23;20015;-75
2022/05/08 04:35:15;;;;;;;1.98;1.75;;;;;;;;;;6185994;23;20033;-75
2022/05/08 04:37:44;;;;;;;3.92;1.02;;;;;;;;;;6186538;23;20008;-74
2022/05/08 04:40:11;;;;;;;0.77;0.77;;;;;;;;;;6184358;23;20420;-74
2022/05/08 04:42:36;;;;;;;1.65;1.10;;;;;;;;;;6186106;23;20021;-74
2022/05/08 04:45:02;;;;;;;2.78;1.48;;;;;;;;;;6185208;23;20363;-75
2022/05/08 04:47:28;;;;;;;0.60;0.60;;;;;;;;;;6186687;23;20063;-74
2022/05/08 04:49:53;;;;;;;8.27;2.15;;;;;;;;;;6185431;23;20128;-74
2022/05/08 04:52:19;;;;;;;3.10;2.15;;;;;;;;;;6185159;23;20004;-75
2022/05/08 04:54:44;;;;;;;1.30;1.10;;;;;;;;;;6185636;23;20008;-74
2022/05/08 04:57:09;;;;;;;0.10;0.10;;;;;;;;;;6185057;23;20024;-75
2022/05/08 04:59:34;;;;;;;0.10;0.10;;;;;;;;;;6185338;23;20032;-75
2022/05/08 05:02:02;;;;;;;1.05;0.90;;;;;;;;;;6185665;23;19997;-74
2022/05/08 05:04:27;;;;;;;1.25;1.15;;;;;;;;;;6184522;23;20008;-75
2022/05/08 05:06:55;;;;;;;4.07;1.35;;;;;;;;;;6185702;23;20408;-76
2022/05/08 05:09:21;;;;;;;0.88;0.88;;;;;;;;;;6186514;23;20005;-76
2022/05/08 05:11:48;;;;;;;1.58;1.35;;;;;;;;;;6159614;23;20001;-75
2022/05/08 05:14:14;;;;;;;0.38;0.38;;;;;;;;;;6185891;23;20416;-75
2022/05/08 05:16:41;;;;;;;0.30;0.30;;;;;;;;;;6186271;23;20001;-75
2022/05/08 05:19:07;;;;;;;0.47;0.35;;;;;;;;;;6185509;23;20016;-75
2022/05/08 05:21:32;;;;;;;1.02;0.90;;;;;;;;;;6185879;23;20010;-75
2022/05/08 05:23:57;;;;;;;0.47;0.47;;;;;;;;;;6185530;23;20023;-75
2022/05/08 05:26:23;;;;;;;0.85;0.45;;;;;;;;;;6186026;23;20009;-75
2022/05/08 05:28:51;;;;;;;0.52;0.52;;;;;;;;;;6186184;23;20015;-74
2022/05/08 05:31:19;;;;;;;3.30;1.05;;;;;;;;;;6185824;23;20008;-74
2022/05/08 05:33:49;;;;;;;1.15;0.75;;;;;;;;;;6184859;23;20012;-75
2022/05/08 05:36:14;;;;;;;1.33;0.82;;;;;;;;;;6185726;23;20071;-75
2022/05/08 05:38:40;;;;;;;1.23;1.10;;;;;;;;;;6185633;23;20009;-74
2022/05/08 05:41:05;;;;;;;1.17;0.32;;;;;;;;;;6185440;23;20032;-74
2022/05/08 05:43:32;;;;;;;3.53;0.82;;;;;;;;;;6185742;23;20020;-74
2022/05/08 05:48:41;;;;;;;3.38;1.48;;;;;;;;;;6185379;23;20143;-75
2022/05/08 05:51:07;;;;;;;0.40;0.40;;;;;;;;;;6184855;23;20052;-74
2022/05/08 05:53:33;;;;;;;0.20;0.20;;;;;;;;;;6185643;23;20001;-73
2022/05/08 05:55:58;;;;;;;3.20;0.85;;;;;;;;;;6185713;23;20001;-75
2022/05/08 05:58:24;;;;;;;3.50;1.98;;;;;;;;;;6183901;23;20040;-72
2022/05/08 06:00:49;;;;;;;2.33;0.80;;;;;;;;;;6185562;23;20005;-74
2022/05/08 06:03:15;;;;;;;0.77;0.77;;;;;;;;;;6185127;23;20067;-77
2022/05/08 06:05:41;;;;;;;0.10;0.10;;;;;;;;;;6185133;23;20013;-74
2022/05/08 06:08:09;;;;;;;4.10;2.35;;;;;;;;;;6185231;23;20075;-73
2022/05/08 06:10:34;;;;;;;1.98;1.55;;;;;;;;;;6185037;23;20216;-74
2022/05/08 06:12:59;;;;;;;2.22;1.95;;;;;;;;;;6186693;23;20009;-74
2022/05/08 06:15:34;;;;;;;0.77;0.52;;;;;;;;;;6187474;23;20088;-74
2022/05/08 06:18:00;;;;;;;2.10;0.68;;;;;;;;;;6187582;23;20004;-75
2022/05/08 06:20:26;;;;;;;0.93;0.50;;;;;;;;;;6186977;23;20008;-77
2022/05/08 06:22:54;;;;;;;0.15;0.15;;;;;;;;;;6187335;23;20396;-77
2022/05/08 06:25:22;;;;;;;1.98;0.88;;;;;;;;;;6187335;23;20035;-77
2022/05/08 06:27:49;;;;;;;0.52;0.50;;;;;;;;;;6187684;23;20012;-76
2022/05/08 06:30:17;;;;;;;0.57;0.57;;;;;;;;;;6186751;23;20009;-76
2022/05/08 06:32:42;;;;;;;0.22;0.22;;;;;;;;;;6187342;23;20008;-77
2022/05/08 06:35:10;;;;;;;2.17;0.93;;;;;;;;;;6187182;23;20277;-77
2022/05/08 06:37:35;;;;;;;8.35;2.42;;;;;;;;;;6187223;23;20011;-77
2022/05/08 06:40:01;;;;;;;1.35;0.50;;;;;;;;;;6187185;23;20359;-77
2022/05/08 06:42:26;;;;;;;0.88;0.85;;;;;;;;;;6186610;23;20015;-78
2022/05/08 06:44:56;;;;;;;0.68;0.50;;;;;;;;;;6186593;23;20005;-78
2022/05/08 06:47:21;;;;;;;1.33;1.15;;;;;;;;;;6186836;23;20347;-77
2022/05/08 06:49:46;;;;;;;3.20;1.02;;;;;;;;;;6187189;23;20005;-77
2022/05/08 06:52:14;;;;;;;3.17;1.85;;;;;;;;;;6187300;23;20005;-77
2022/05/08 06:54:39;;;;;;;0.60;0.60;;;;;;;;;;6186937;23;20312;-77
2022/05/08 06:57:05;;;;;;;0.80;0.35;;;;;;;;;;6186964;23;20005;-77
2022/05/08 07:02:15;;;;;;;0.60;0.60;;;;;;;;;;6187067;23;20008;-77
2022/05/08 07:04:40;;;;;;;9.80;0.60;;;;;;;;;;6186530;23;20012;-77
2022/05/08 07:07:06;;;;;;;0.20;0.20;;;;;;;;;;6185735;23;20001;-77
2022/05/08 07:09:32;;;;;;;0.45;0.22;;;;;;;;;;6186617;23;20005;-76
2022/05/08 07:11:58;;;;;;;1.75;0.60;;;;;;;;;;6185875;23;20009;-77
2022/05/08 07:14:23;;;;;;;0.00;0.00;;;;;;;;;;6186436;23;20000;-77
2022/05/08 07:16:48;;;;;;;0.30;0.30;;;;;;;;;;6186740;23;20013;-76
2022/05/08 07:19:14;;;;;;;0.17;0.17;;;;;;;;;;6186717;23;20061;-76
2022/05/08 07:21:39;;;;;;;3.85;0.80;;;;;;;;;;6184963;23;20381;-76
2022/05/08 07:24:05;;;;;;;2.95;0.57;;;;;;;;;;6185647;23;20398;-76
2022/05/08 07:26:31;;;;;;;1.20;0.95;;;;;;;;;;6176132;23;20084;-76
2022/05/08 07:28:59;;;;;;;7.68;1.75;;;;;;;;;;6156718;23;20093;-77
2022/05/08 07:31:27;;;;;;;3.55;0.65;;;;;;;;;;6130360;23;20006;-77
2022/05/08 07:36:12;;;;;;;0.73;0.73;;;;;;;;;;6155643;23;20002;-77
2022/05/08 07:36:41;;;;;;;0.17;0.17;;;;;;;;;;6155920;23;20005;-77
2022/05/08 07:39:06;;;;;;;2.83;1.10;;;;;;;;;;6156734;23;20009;-75
2022/05/08 07:41:33;;;;;;;0.77;0.20;;;;;;;;;;6155619;23;20002;-77
2022/05/08 07:43:59;;;;;;;1.45;0.47;;;;;;;;;;6157291;23;20005;-76
2022/05/08 07:46:29;;;;;;;0.38;0.38;;;;;;;;;;6156877;23;20063;-77
2022/05/08 07:48:58;;;;;;;3.63;1.02;;;;;;;;;;6156788;23;20010;-76
2022/05/08 07:51:25;;;;;;;0.65;0.65;;;;;;;;;;6156340;23;20009;-76
2022/05/08 07:53:51;;;;;;;1.63;1.02;;;;;;;;;;6157129;23;20001;-76
2022/05/08 07:56:19;;;;;;;0.85;0.85;;;;;;;;;;6155099;23;20084;-76
2022/05/08 07:58:47;;;;;;;0.55;0.55;;;;;;;;;;6156588;23;20006;-77
2022/05/08 08:01:12;;;;;;;0.70;0.70;;;;;;;;;;6157259;23;19997;-77
2022/05/08 08:03:38;;;;;;;6.53;1.92;;;;;;;;;;6156606;23;20079;-76
2022/05/08 08:06:06;;;;;;;2.05;0.57;;;;;;;;;;6156786;23;20282;-76
2022/05/08 08:08:34;;;;;;;0.45;0.45;;;;;;;;;;6155003;23;20416;-76
2022/05/08 08:11:03;;;;;;;3.67;1.05;;;;;;;;;;6156544;23;20005;-78
2022/05/08 08:13:31;;;;;;;1.33;0.85;;;;;;;;;;6155466;23;20002;-77
2022/05/08 08:15:56;;;;;;;0.43;0.32;;;;;;;;;;6156538;23;20101;-76
2022/05/08 08:18:22;;;;;;;1.02;0.68;;;;;;;;;;6179854;23;20018;-77
2022/05/08 08:20:47;;;;;;;0.70;0.65;;;;;;;;;;6155522;23;20005;-76
2022/05/08 08:23:13;;;;;;;1.42;1.27;;;;;;;;;;6156192;23;20005;-76
2022/05/08 08:25:39;;;;;;;1.73;1.58;;;;;;;;;;6156535;23;20001;-76
2022/05/08 08:28:08;;;;;;;3.30;0.43;;;;;;;;;;6154670;23;20020;-76
2022/05/08 08:30:33;;;;;;;0.68;0.68;;;;;;;;;;6154466;23;20002;-76
2022/05/08 08:33:00;;;;;;;0.43;0.43;;;;;;;;;;6155541;23;20062;-76
2022/05/08 08:35:26;;;;;;;1.60;0.73;;;;;;;;;;6130264;23;20301;-77
2022/05/08 08:37:54;;;;;;;1.48;0.73;;;;;;;;;;6156319;23;20001;-75
2022/05/08 08:40:20;;;;;;;3.25;2.05;;;;;;;;;;6155924;23;20012;-76
2022/05/08 08:42:46;;;;;;;1.80;1.23;;;;;;;;;;6156656;23;20372;-77
2022/05/08 08:48:06;;;;;;;0.45;0.45;;;;;;;;;;6156612;23;20317;-76
2022/05/08 08:50:35;;;;;;;4.15;1.00;;;;;;;;;;6156090;23;20001;-75
2022/05/08 08:53:09;;;;;;;1.88;0.43;;;;;;;;;;6156410;23;20013;-74
2022/05/08 08:55:35;;;;;;;0.57;0.57;;;;;;;;;;6154803;23;20401;-74
2022/05/08 08:58:07;;;;;;;3.10;1.45;;;;;;;;;;6156395;23;20005;-75
2022/05/08 09:00:38;;;;;;;0.90;0.80;;;;;;;;;;6156156;23;20008;-75
2022/05/08 09:03:07;;;;;;;0.35;0.35;;;;;;;;;;6155944;23;20025;-74
2022/05/08 09:05:38;;;;;;;1.05;0.63;;;;;;;;;;6155783;23;20047;-75
2022/05/08 09:08:06;;;;;;;0.15;0.15;;;;;;;;;;6155276;23;20020;-75
2022/05/08 09:10:37;;;;;;;0.40;0.40;;;;;;;;;;6156110;23;20473;-75
2022/05/08 09:13:09;;;;;;;1.92;1.10;;;;;;;;;;6130212;23;20009;-75
2022/05/08 09:15:35;;;;;;;0.38;0.32;;;;;;;;;;6156051;23;20366;-75
2022/05/08 09:18:11;;;;;;;1.48;0.57;;;;;;;;;;6153733;23;20012;-75
2022/05/08 09:21:54;;;;;;;0.43;0.43;;;;;;;;;;6155134;23;20001;-74
2022/05/08 09:23:47;;;;;;;1.33;0.77;;;;;;;;;;6154540;23;20096;-74
2022/05/08 09:26:13;;;;;;;0.85;0.35;;;;;;;;;;6154982;23;20009;-74
2022/05/08 09:28:40;;;;;;;1.52;1.42;;;;;;;;;;6154860;23;20424;-74
2022/05/08 09:31:19;;;;;;;1.25;0.95;;;;;;;;;;6179416;23;20123;-75
2022/05/08 09:33:56;;;;;;;0.55;0.45;;;;;;;;;;6155358;23;20013;-75
2022/05/08 09:36:24;;;;;;;0.57;0.45;;;;;;;;;;6153751;23;20136;-74
2022/05/08 09:38:49;;;;;;;0.28;0.28;;;;;;;;;;6154595;23;20272;-76
2022/05/08 09:41:26;;;;;;;1.00;1.00;;;;;;;;;;6154256;23;20001;-80
2022/05/08 09:43:54;;;;;;;0.47;0.47;;;;;;;;;;6157199;23;20064;-91
2022/05/08 09:46:20;;;;;;;0.88;0.60;;;;;;;;;;6159009;23;20033;-86
2022/05/08 09:48:45;;;;;;;1.27;1.00;;;;;;;;;;6161394;23;20024;-90
2022/05/08 09:51:12;;;;;;;0.93;0.80;;;;;;;;;;6160190;23;20005;-94
2022/05/08 09:53:39;;;;;;;0.45;0.45;;;;;;;;;;6160204;23;20080;-93
2022/05/08 09:56:07;;;;;;;0.75;0.75;;;;;;;;;;6158024;23;20005;-90
2022/05/08 09:58:33;;;;;;;0.80;0.50;;;;;;;;;;6161412;23;20001;-90
2022/05/08 10:00:59;;;;;;;1.65;0.80;;;;;;;;;;6160154;23;20358;-89
2022/05/08 10:03:25;;;;;;;0.90;0.52;;;;;;;;;;6133361;23;20014;-91
2022/05/08 10:05:51;;;;;;;0.30;0.30;;;;;;;;;;6157477;23;20009;-89
2022/05/08 10:08:21;;;;;;;1.27;0.75;;;;;;;;;;6157156;23;20009;-92
2022/05/08 10:13:53;;;;;;;7.57;1.13;;;;;;;;;;6156538;23;20079;-90
2022/05/08 10:16:47;;;;;;;1.25;1.15;;;;;;;;;;6158340;23;20001;-89
2022/05/08 10:19:18;;;;;;;0.38;0.32;;;;;;;;;;6159288;23;20386;-82
2022/05/08 10:21:56;;;;;;;0.30;0.30;;;;;;;;;;6160001;23;19998;-86
2022/05/08 10:24:47;;;;;;;5.93;0.60;;;;;;;;;;6158293;23;20017;-90
2022/05/08 10:27:31;;;;;;;0.15;0.15;;;;;;;;;;6158636;23;20009;-82
2022/05/08 10:29:56;;;;;;;2.25;1.02;;;;;;;;;;6162337;23;20009;-94
2022/05/08 10:32:33;;;;;;;0.52;0.52;;;;;;;;;;6161529;23;20068;-92
2022/05/08 10:35:15;;;;;;;0.40;0.40;;;;;;;;;;6160160;23;20001;-90
2022/05/08 10:38:12;;;;;;;0.40;0.40;;;;;;;;;;6159961;23;20398;-90
2022/05/08 10:40:38;;;;;;;0.55;0.55;;;;;;;;;;6070315;23;20030;-92
2022/05/08 10:43:37;;;;;;;2.28;1.45;;;;;;;;;;6066726;23;20327;-91
2022/05/08 10:46:22;;;;;;;0.63;0.47;;;;;;;;;;6066009;23;20034;-91
2022/05/08 10:48:47;;;;;;;0.50;0.45;;;;;;;;;;6065941;23;20143;-90
2022/05/08 10:51:12;;;;;;;12.77;0.70;;;;;;;;;;6066120;23;20023;-87
2022/05/08 10:53:39;;;;;;;1.02;0.70;;;;;;;;;;6066272;23;20085;-86
2022/05/08 10:56:09;;;;;;;1.45;0.90;;;;;;;;;;6065938;23;20011;-88
2022/05/08 10:58:36;;;;;;;3.65;1.05;;;;;;;;;;6067657;23;20011;-89
2022/05/08 11:01:05;;;;;;;0.35;0.22;;;;;;;;;;6068216;23;20386;-85
2022/05/08 11:03:35;;;;;;;0.45;0.45;;;;;;;;;;6043785;23;20021;-90
2022/05/08 11:06:01;;;;;;;2.88;1.15;;;;;;;;;;6069760;23;20021;-94
2022/05/08 11:08:29;;;;;;;3.03;0.73;;;;;;;;;;6068722;23;20085;-93
2022/05/08 11:11:09;;;;;;;1.30;0.75;;;;;;;;;;6068251;23;20419;-85
2022/05/08 11:13:47;;;;;;;1.23;0.47;;;;;;;;;;6045264;23;20450;-87
2022/05/08 11:16:29;;;;;;;17.60;2.53;;;;;;;;;;6048031;23;20081;-88
2022/05/08 11:18:59;;;;;;;0.93;0.90;;;;;;;;;;6138584;23;20009;-89
2022/05/08 11:21:34;;;;;;;0.38;0.38;;;;;;;;;;6165867;23;20155;-93
2022/05/08 11:23:59;;;;;;;0.40;0.40;;;;;;;;;;6162557;23;20068;-92
2022/05/08 11:26:33;;;;;;;1.13;0.88;;;;;;;;;;6162796;23;20001;-87
2022/05/08 11:28:59;;;;;;;2.78;0.73;;;;;;;;;;6163025;23;20032;-88
2022/05/08 11:31:30;;;;;;;1.08;0.60;;;;;;;;;;6161412;23;20022;-91
2022/05/08 11:36:40;;;;;;;1.60;0.60;;;;;;;;;;6161620;23;20041;-82
2022/05/08 11:39:17;;;;;;;3.10;0.85;;;;;;;;;;6160004;23;20077;-86
2022/05/08 11:41:51;;;;;;;0.30;0.30;;;;;;;;;;6160741;23;20052;-88
2022/05/08 11:44:21;;;;;;;1.42;0.85;;;;;;;;;;6161418;23;20471;-85
2022/05/08 11:46:55;;;;;;;1.55;0.90;;;;;;;;;;6158544;23;20049;-86
2022/05/08 11:49:26;;;;;;;1.00;0.65;;;;;;;;;;6160821;23;20017;-82
2022/05/08 11:51:56;;;;;;;1.85;0.70;;;;;;;;;;6158938;23;20477;-84
2022/05/08 11:54:28;;;;;;;4.03;0.95;;;;;;;;;;6160534;23;20016;-86
2022/05/08 11:57:16;;;;;;;1.98;0.47;;;;;;;;;;6159509;23;20068;-85
2022/05/08 11:59:52;;;;;;;0.30;0.30;;;;;;;;;;6161540;23;20053;-83
2022/05/08 12:02:18;;;;;;;2.17;0.45;;;;;;;;;;6159746;23;20013;-82
2022/05/08 12:04:55;;;;;;;2.35;0.73;;;;;;;;;;6160194;23;20016;-84
2022/05/08 12:07:21;;;;;;;0.70;0.47;;;;;;;;;;6160049;23;20055;-88
2022/05/08 12:09:47;;;;;;;0.28;0.28;;;;;;;;;;6160362;23;20029;-86
2022/05/08 12:12:30;;;;;;;1.27;0.73;;;;;;;;;;6159878;23;20097;-83
2022/05/08 12:15:17;;;;;;;4.38;0.95;;;;;;;;;;6161477;23;19997;-86
2022/05/08 12:17:42;;;;;;;2.92;0.80;;;;;;;;;;6160379;23;20009;-80
2022/05/08 12:20:09;;;;;;;0.30;0.30;;;;;;;;;;6160856;23;20344;-85
2022/05/08 12:22:35;;;;;;;0.55;0.30;;;;;;;;;;6159552;23;20297;-84
2022/05/08 12:25:00;;;;;;;0.47;0.20;;;;;;;;;;6158965;23;20001;-84
2022/05/08 12:27:26;;;;;;;2.45;0.43;;;;;;;;;;6158641;23;20458;-86
2022/05/08 12:29:53;;;;;;;1.15;1.05;;;;;;;;;;6161448;23;20004;-85
2022/05/08 12:32:20;;;;;;;0.73;0.70;;;;;;;;;;6162481;23;20174;-84
2022/05/08 12:34:49;;;;;;;0.73;0.73;;;;;;;;;;6160452;23;20009;-89
2022/05/08 12:37:18;;;;;;;0.73;0.52;;;;;;;;;;6160533;23;20142;-83
2022/05/08 12:39:43;;;;;;;0.40;0.40;;;;;;;;;;6160484;23;20156;-85
2022/05/08 12:42:10;;;;;;;1.45;0.25;;;;;;;;;;6160648;23;20058;-88
2022/05/08 12:44:39;;;;;;;0.38;0.38;;;;;;;;;;6161290;23;20084;-84
2022/05/08 12:47:09;;;;;;;0.28;0.22;;;;;;;;;;6160933;23;20005;-85
2022/05/08 12:49:49;;;;;;;0.20;0.20;;;;;;;;;;6136454;23;20411;-91
2022/05/08 12:52:17;;;;;;;2.10;0.60;;;;;;;;;;6159929;23;20005;-85
2022/05/08 12:54:42;;;;;;;1.13;0.25;;;;;;;;;;6159849;23;20032;-88
2022/05/08 12:57:09;;;;;;;1.10;0.70;;;;;;;;;;6161914;23;19997;-84
2022/05/08 12:59:48;;;;;;;8.02;0.65;;;;;;;;;;6159620;23;20009;-89
2022/05/08 13:02:15;;;;;;;1.13;0.57;;;;;;;;;;6162329;23;20314;-91
2022/05/08 13:04:41;;;;;;;0.28;0.28;;;;;;;;;;6161876;23;20012;-89
2022/05/08 13:07:09;;;;;;;0.63;0.52;;;;;;;;;;6161550;23;20025;-88
2022/05/08 13:09:35;;;;;;;0.13;0.13;;;;;;;;;;6162115;23;20001;-90
2022/05/08 13:12:06;;;;;;;4.28;0.90;;;;;;;;;;6163390;23;20016;-88
2022/05/08 13:14:33;;;;;;;3.50;0.77;;;;;;;;;;6169533;23;20009;-93
2022/05/08 13:16:59;;;;;;;1.23;0.35;;;;;;;;;;6162463;23;20028;-89
2022/05/08 13:19:29;;;;;;;1.25;0.98;;;;;;;;;;6140937;23;20013;-88
2022/05/08 13:21:55;;;;;;;3.03;0.50;;;;;;;;;;6160764;23;20009;-84
2022/05/08 13:24:20;;;;;;;1.10;0.77;;;;;;;;;;6130993;23;20008;-82
2022/05/08 13:26:46;;;;;;;2.30;0.20;;;;;;;;;;6130292;23;20059;-86
2022/05/08 13:29:12;;;;;;;1.55;0.63;;;;;;;;;;6131337;23;20442;-81
2022/05/08 13:31:41;;;;;;;1.02;0.77;;;;;;;;;;6157789;23;20001;-82
2022/05/08 13:34:10;;;;;;;2.97;0.77;;;;;;;;;;6155037;23;20060;-84
2022/05/08 13:36:35;;;;;;;0.35;0.30;;;;;;;;;;6131777;23;20420;-81
2022/05/08 13:39:01;;;;;;;0.10;0.10;;;;;;;;;;6157258;23;20001;-83
2022/05/08 13:41:26;;;;;;;1.25;0.70;;;;;;;;;;6155698;23;20075;-82
2022/05/08 13:43:51;;;;;;;0.38;0.38;;;;;;;;;;6157096;23;20349;-82
2022/05/08 13:46:17;;;;;;;1.52;0.40;;;;;;;;;;6132327;23;20001;-84
2022/05/08 13:48:44;;;;;;;0.60;0.60;;;;;;;;;;6132255;23;20009;-81
2022/05/08 13:51:11;;;;;;;2.90;0.70;;;;;;;;;;6155301;23;20005;-81
2022/05/08 13:53:36;;;;;;;0.35;0.35;;;;;;;;;;6154413;23;20012;-80
2022/05/08 13:56:02;;;;;;;2.85;1.17;;;;;;;;;;6156068;23;20017;-81
2022/05/08 13:58:30;;;;;;;0.25;0.22;;;;;;;;;;6156860;23;20012;-81
2022/05/08 14:00:57;;;;;;;0.22;0.20;;;;;;;;;;6156131;23;20017;-81
2022/05/08 14:03:22;;;;;;;0.38;0.38;;;;;;;;;;6131368;23;20052;-81
2022/05/08 14:05:51;;;;;;;0.10;0.10;;;;;;;;;;6131663;23;20006;-82
2022/05/08 14:08:17;;;;;;;1.77;0.55;;;;;;;;;;6132693;23;20429;-83
2022/05/08 14:10:46;;;;;;;0.55;0.47;;;;;;;;;;6132707;23;20091;-81
2022/05/08 14:13:12;;;;;;;1.10;0.82;;;;;;;;;;6156718;23;20409;-80
2022/05/08 14:15:40;;;;;;;0.32;0.28;;;;;;;;;;6156478;23;20006;-80
2022/05/08 14:18:06;;;;;;;0.38;0.38;;;;;;;;;;6156949;23;20076;-82
2022/05/08 14:20:34;;;;;;;0.20;0.20;;;;;;;;;;6159427;23;20005;-82
2022/05/08 14:23:05;;;;;;;1.02;0.32;;;;;;;;;;6137916;23;20005;-82
2022/05/08 14:25:31;;;;;;;1.00;0.80;;;;;;;;;;6156570;23;20002;-81
2022/05/08 14:27:57;;;;;;;0.57;0.57;;;;;;;;;;6131511;23;20005;-80
2022/05/08 14:30:22;;;;;;;0.52;0.52;;;;;;;;;;6156058;23;20005;-79
2022/05/08 14:38:13;;;;;;;0.55;0.55;;;;;;;;;;6159205;23;20009;-80
2022/05/08 14:40:39;;;;;;;0.20;0.20;;;;;;;;;;6134104;23;19998;-87
2022/05/08 14:43:07;;;;;;;0.60;0.55;;;;;;;;;;6135232;23;20010;-87
2022/05/08 14:45:35;;;;;;;0.43;0.43;;;;;;;;;;6159080;23;20005;-84
2022/05/08 14:48:03;;;;;;;0.00;0.00;;;;;;;;;;6159613;23;20102;-84
2022/05/08 14:50:29;;;;;;;0.52;0.40;;;;;;;;;;6155871;23;20040;-84
2022/05/08 14:52:58;;;;;;;0.10;0.10;;;;;;;;;;6133905;23;20021;-83
2022/05/08 14:55:23;;;;;;;1.98;1.55;;;;;;;;;;6157482;23;20017;-86
2022/05/08 14:57:54;;;;;;;3.10;1.17;;;;;;;;;;6157261;23;20009;-86
2022/05/08 15:00:24;;;;;;;0.73;0.38;;;;;;;;;;6158098;23;20074;-86
2022/05/08 15:02:55;;;;;;;0.90;0.52;;;;;;;;;;6133032;23;20001;-88
2022/05/08 15:05:22;;;;;;;0.40;0.20;;;;;;;;;;6158091;23;20031;-87
2022/05/08 15:07:48;;;;;;;3.50;0.55;;;;;;;;;;6157540;23;20020;-87
2022/05/08 15:10:13;;;;;;;0.22;0.22;;;;;;;;;;6131406;23;20056;-88
2022/05/08 15:12:56;;;;;;;0.28;0.28;;;;;;;;;;6158678;23;20044;-88
2022/05/08 15:15:21;;;;;;;1.30;0.52;;;;;;;;;;6181808;23;20061;-90
2022/05/08 15:21:30;;;;;;;0.35;0.35;;;;;;;;;;6157565;23;20040;-86
2022/05/08 15:23:58;;;;;;;0.17;0.17;;;;;;;;;;6157596;23;20334;-85
2022/05/08 15:26:23;;;;;;;0.57;0.40;;;;;;;;;;6133657;23;20009;-87
2022/05/08 15:28:48;;;;;;;0.43;0.43;;;;;;;;;;6158807;23;20020;-87
2022/05/08 15:31:14;;;;;;;7.50;1.25;;;;;;;;;;6159429;23;20017;-86
2022/05/08 15:33:41;;;;;;;0.85;0.50;;;;;;;;;;6133725;23;20005;-85